Time;durP1;ratioP1;P1;durP2;ratioP2;P2;SDS_P1;SDS_P2;PMS_P1;PMS_P2;Temp;Humidity;BMP_temperature;BMP_pressure;BME280_temperature;BME280_humidity;BME280_pressure;Samples;Min_cycle;Max_cycle;Signal;HPM_P1;HPM_P2
2023/02/09 00:01:49;;;;;;;0.60;0.60;;;;;;;1.79;80.45;101533.47;5108790;28;20031;-73
2023/02/09 00:04:14;;;;;;;0.50;0.50;;;;;;;1.88;80.30;101553.50;5107238;28;20027;-72
2023/02/09 00:06:40;;;;;;;1.20;1.17;;;;;;;1.88;80.52;101536.47;5107424;28;20027;-71
2023/02/09 00:09:05;;;;;;;1.58;1.13;;;;;;;1.88;81.34;101536.47;5109602;28;20020;-72
2023/02/09 00:14:17;;;;;;;0.70;0.70;;;;;;;1.88;79.76;101510.84;5108560;28;20035;-72
2023/02/09 00:16:43;;;;;;;1.30;1.30;;;;;;;1.92;80.78;101499.94;5108329;28;20392;-70
2023/02/09 00:19:09;;;;;;;0.60;0.60;;;;;;;1.92;80.72;101494.81;5107394;28;20016;-72
2023/02/09 00:21:35;;;;;;;2.40;2.30;;;;;;;1.88;80.56;101490.38;5108182;28;20468;-72
2023/02/09 00:24:00;;;;;;;0.50;0.50;;;;;;;1.91;80.46;101482.81;5108236;28;20058;-71
2023/02/09 00:26:26;;;;;;;0.55;0.55;;;;;;;1.89;80.55;101471.63;5089911;28;20019;-71
2023/02/09 00:28:51;;;;;;;0.50;0.50;;;;;;;1.89;80.35;101478.41;5108107;28;20042;-72
2023/02/09 00:31:17;;;;;;;6.07;5.70;;;;;;;1.85;80.48;101468.03;5090728;28;20066;-73
2023/02/09 00:33:42;;;;;;;0.60;0.60;;;;;;;1.85;79.99;101483.41;5109006;28;20027;-73
2023/02/09 00:36:11;;;;;;;0.60;0.60;;;;;;;1.87;79.57;101473.22;5108010;28;20077;-73
2023/02/09 00:38:36;;;;;;;0.60;0.60;;;;;;;1.87;79.63;101482.63;5107949;28;20024;-71
2023/02/09 00:41:02;;;;;;;0.60;0.60;;;;;;;1.89;80.29;101461.38;5108154;28;20043;-73
2023/02/09 00:43:28;;;;;;;0.70;0.70;;;;;;;1.92;80.85;101458.94;5108044;28;20035;-71
2023/02/09 00:45:53;;;;;;;0.50;0.50;;;;;;;1.91;80.56;101471.69;5107405;28;20059;-70
2023/02/09 00:48:18;;;;;;;0.60;0.60;;;;;;;1.87;79.79;101468.09;5107476;28;20040;-68
2023/02/09 00:50:44;;;;;;;0.82;0.82;;;;;;;1.85;80.46;101462.06;5107612;28;20034;-69
2023/02/09 00:53:09;;;;;;;0.50;0.50;;;;;;;1.88;80.49;101451.94;5107402;28;20042;-72
2023/02/09 00:55:35;;;;;;;0.60;0.60;;;;;;;1.89;81.06;101452.81;5107557;28;20092;-71
2023/02/09 00:58:00;;;;;;;0.60;0.60;;;;;;;1.85;79.68;101441.56;5107483;28;20024;-72
2023/02/09 01:00:26;;;;;;;0.60;0.60;;;;;;;1.92;80.67;101450.38;5107297;28;20078;-71
2023/02/09 01:02:51;;;;;;;0.60;0.60;;;;;;;1.81;80.40;101432.88;5107380;28;20087;-73
2023/02/09 01:05:17;;;;;;;0.50;0.50;;;;;;;1.94;80.78;101426.59;5107716;28;20023;-72
2023/02/09 01:07:43;;;;;;;0.60;0.60;;;;;;;1.84;81.43;101427.88;5107358;28;20108;-73
2023/02/09 01:10:09;;;;;;;1.33;1.30;;;;;;;1.89;81.89;101428.09;5107355;28;20056;-73
2023/02/09 01:12:37;;;;;;;0.75;0.75;;;;;;;1.84;81.70;101440.69;5107388;28;20072;-71
2023/02/09 01:15:03;;;;;;;2.38;1.05;;;;;;;1.82;81.47;101436.31;5107087;28;20455;-73
2023/02/09 01:17:28;;;;;;;0.60;0.60;;;;;;;1.80;81.25;101420.00;5087913;28;20088;-72
2023/02/09 01:19:54;;;;;;;0.50;0.50;;;;;;;1.80;81.79;101427.69;5105937;28;20024;-70
2023/02/09 01:22:20;;;;;;;2.08;1.98;;;;;;;1.82;81.54;101418.41;5106306;28;20024;-72
2023/02/09 01:24:46;;;;;;;0.80;0.80;;;;;;;1.80;80.58;101417.44;5106030;28;20031;-72
2023/02/09 01:27:12;;;;;;;0.95;0.95;;;;;;;1.81;81.34;101409.81;5105808;28;20028;-71
2023/02/09 01:29:38;;;;;;;0.70;0.70;;;;;;;1.77;81.36;101396.81;5105709;28;20024;-69
2023/02/09 01:32:03;;;;;;;0.50;0.50;;;;;;;1.75;80.96;101398.44;5106492;28;20022;-70
2023/02/09 01:34:29;;;;;;;0.60;0.60;;;;;;;1.83;80.48;101392.84;5088618;28;20024;-70
2023/02/09 01:36:54;;;;;;;0.60;0.60;;;;;;;1.78;80.64;101393.44;5106755;28;20107;-72
2023/02/09 01:39:20;;;;;;;3.83;3.60;;;;;;;1.79;80.27;101400.34;5106691;28;20031;-70
2023/02/09 01:41:45;;;;;;;0.68;0.68;;;;;;;1.70;80.63;101381.19;5088482;28;20085;-73
2023/02/09 01:44:10;;;;;;;0.90;0.90;;;;;;;1.74;81.00;101392.44;5107056;28;20020;-74
2023/02/09 01:46:37;;;;;;;1.08;0.90;;;;;;;1.72;81.13;101366.78;5106237;28;20024;-69
2023/02/09 01:49:14;;;;;;;2.22;2.08;;;;;;;1.69;80.55;101405.03;5088208;28;20054;-74
2023/02/09 01:51:48;;;;;;;0.60;0.60;;;;;;;1.69;80.26;101391.38;5106640;28;20034;-72
2023/02/09 01:54:19;;;;;;;1.95;1.85;;;;;;;1.67;80.58;101380.19;5106391;28;20042;-73
2023/02/09 01:56:50;;;;;;;0.70;0.70;;;;;;;1.64;80.59;101386.03;5088224;28;20024;-73
2023/02/09 01:59:16;;;;;;;0.60;0.60;;;;;;;1.61;80.15;101362.88;5106350;28;20028;-72
2023/02/09 02:01:42;;;;;;;0.65;0.65;;;;;;;1.59;80.33;101362.81;5106386;28;20020;-72
2023/02/09 02:04:08;;;;;;;0.70;0.70;;;;;;;1.68;80.90;101372.56;5106360;28;20032;-71
2023/02/09 02:06:34;;;;;;;0.60;0.60;;;;;;;1.72;80.39;101369.34;5106309;28;20080;-70
2023/02/09 02:09:05;;;;;;;9.32;2.05;;;;;;;1.71;81.39;101349.66;5106257;28;20035;-72
2023/02/09 02:11:31;;;;;;;0.85;0.85;;;;;;;1.72;80.58;101343.75;5106202;28;20028;-72
2023/02/09 02:13:58;;;;;;;1.05;1.05;;;;;;;1.70;81.04;101342.78;5106080;28;20031;-72
2023/02/09 02:16:56;;;;;;;0.60;0.60;;;;;;;1.73;80.50;101335.25;5106087;28;20027;-71
2023/02/09 02:19:42;;;;;;;0.60;0.60;;;;;;;1.69;80.91;101300.06;5087807;28;20020;-71
2023/02/09 02:22:25;;;;;;;1.30;1.25;;;;;;;1.68;80.98;101311.13;5106033;28;20061;-72
2023/02/09 02:25:17;;;;;;;0.50;0.50;;;;;;;1.72;80.75;101292.53;5106229;28;20041;-72
2023/02/09 02:27:59;;;;;;;0.70;0.70;;;;;;;1.70;81.07;101298.38;5106000;28;20020;-72
2023/02/09 02:30:49;;;;;;;0.80;0.80;;;;;;;1.65;80.51;101300.75;5105697;28;20020;-73
2023/02/09 02:33:29;;;;;;;0.98;0.98;;;;;;;1.65;80.61;101290.50;5105905;28;20031;-72
2023/02/09 02:36:06;;;;;;;0.88;0.88;;;;;;;1.59;81.56;101280.00;5105928;28;20035;-72
2023/02/09 02:38:59;;;;;;;0.57;0.57;;;;;;;1.59;80.61;101280.00;5105776;28;20083;-74
2023/02/09 02:41:25;;;;;;;0.75;0.75;;;;;;;1.65;80.59;101274.25;5106196;28;20103;-72
2023/02/09 02:44:11;;;;;;;2.60;2.50;;;;;;;1.64;81.07;101277.66;5105202;28;20360;-73
2023/02/09 02:46:47;;;;;;;3.10;2.90;;;;;;;1.61;80.95;101269.00;5105572;28;20043;-69
2023/02/09 02:49:35;;;;;;;0.60;0.60;;;;;;;1.64;81.30;101263.16;5106313;28;20048;-72
2023/02/09 02:52:05;;;;;;;0.60;0.60;;;;;;;1.65;82.15;101258.91;5105845;28;20076;-72
2023/02/09 02:54:39;;;;;;;0.55;0.55;;;;;;;1.61;82.46;101242.56;5105557;28;20031;-74
2023/02/09 02:57:10;;;;;;;1.00;0.98;;;;;;;1.60;82.00;101256.16;5105852;28;20024;-73
2023/02/09 02:59:52;;;;;;;1.00;1.00;;;;;;;1.68;82.08;101236.88;5105537;28;20012;-72
2023/02/09 03:02:36;;;;;;;0.70;0.70;;;;;;;1.71;81.86;101237.00;5105566;28;20522;-73
2023/02/09 03:05:03;;;;;;;0.50;0.50;;;;;;;1.70;82.56;101229.25;5087423;28;20020;-73
2023/02/09 03:07:29;;;;;;;0.60;0.60;;;;;;;1.69;82.71;101237.75;5105454;28;20028;-74
2023/02/09 03:09:55;;;;;;;1.00;1.00;;;;;;;1.67;82.46;101232.56;5106076;28;20027;-71
2023/02/09 03:13:17;;;;;;;1.15;1.15;;;;;;;1.61;82.15;101217.81;5106651;28;20093;-70
2023/02/09 03:16:07;;;;;;;0.70;0.70;;;;;;;1.65;81.64;101221.38;5037396;28;20041;-72
2023/02/09 03:18:54;;;;;;;2.78;2.60;;;;;;;1.64;81.98;101214.53;5042612;28;20076;-72
2023/02/09 03:21:23;;;;;;;0.60;0.60;;;;;;;1.77;81.54;101212.47;5026234;28;20026;-71
2023/02/09 03:24:00;;;;;;;0.90;0.90;;;;;;;1.76;81.74;101197.94;5042762;28;20112;-72
2023/02/09 03:26:32;;;;;;;0.70;0.70;;;;;;;1.75;82.10;101203.84;5042396;28;20026;-72
2023/02/09 03:29:00;;;;;;;9.27;5.88;;;;;;;1.79;81.70;101195.50;5041159;28;20025;-71
2023/02/09 03:31:27;;;;;;;0.50;0.50;;;;;;;1.82;80.97;101198.19;5041016;28;20042;-74
2023/02/09 03:33:55;;;;;;;1.15;1.15;;;;;;;1.80;81.04;101197.22;5042255;28;20154;-72
2023/02/09 03:36:20;;;;;;;0.63;0.63;;;;;;;1.91;81.35;101192.53;5042830;28;20255;-71
2023/02/09 03:38:46;;;;;;;0.60;0.60;;;;;;;1.91;81.95;101178.06;5042449;28;20034;-72
2023/02/09 03:41:11;;;;;;;0.98;0.98;;;;;;;1.82;81.56;101178.53;5042652;28;20480;-71
2023/02/09 03:46:28;;;;;;;0.70;0.70;;;;;;;1.98;81.04;101177.47;5027283;28;20073;-71
2023/02/09 03:48:54;;;;;;;0.50;0.50;;;;;;;1.95;80.58;101174.78;5043204;28;20060;-71
2023/02/09 03:51:19;;;;;;;1.08;1.08;;;;;;;1.96;80.99;101168.88;5085685;28;20040;-74
2023/02/09 03:53:45;;;;;;;0.95;0.95;;;;;;;2.03;80.62;101164.84;5107019;28;20024;-71
2023/02/09 03:56:11;;;;;;;1.00;1.00;;;;;;;1.97;80.47;101150.13;5109899;28;20034;-70
2023/02/09 03:58:36;;;;;;;0.77;0.77;;;;;;;2.03;80.69;101161.44;5108923;28;20016;-70
2023/02/09 04:01:08;;;;;;;0.60;0.60;;;;;;;1.97;79.97;101155.25;5109412;28;20090;-72
2023/02/09 04:03:35;;;;;;;0.98;0.98;;;;;;;2.04;80.15;101155.47;5109641;28;20035;-71
2023/02/09 04:06:01;;;;;;;0.68;0.68;;;;;;;1.99;80.32;101139.94;5109361;28;20042;-72
2023/02/09 04:08:28;;;;;;;0.60;0.60;;;;;;;2.07;80.59;101160.72;5091269;28;20166;-72
2023/02/09 04:10:55;;;;;;;0.60;0.60;;;;;;;2.09;80.64;101159.09;5108557;28;20088;-72
2023/02/09 04:13:21;;;;;;;1.08;1.08;;;;;;;2.04;80.42;101140.13;5108561;28;20028;-72
2023/02/09 04:15:46;;;;;;;0.50;0.50;;;;;;;2.07;79.74;101150.47;5108389;28;20099;-70
2023/02/09 04:18:12;;;;;;;1.65;1.55;;;;;;;2.09;79.70;101148.84;5108355;28;20460;-74
2023/02/09 04:20:37;;;;;;;0.60;0.60;;;;;;;2.04;78.68;101150.38;5108399;28;20028;-72
2023/02/09 04:23:03;;;;;;;0.60;0.60;;;;;;;2.05;78.93;101146.97;5108455;28;20016;-72
2023/02/09 04:25:29;;;;;;;0.65;0.65;;;;;;;2.05;78.02;101160.66;5089914;28;20426;-72
2023/02/09 04:27:54;;;;;;;0.50;0.50;;;;;;;2.10;78.58;101166.84;5108130;28;20551;-73
2023/02/09 04:30:19;;;;;;;5.13;2.30;;;;;;;2.10;78.27;101155.72;5107970;28;20042;-73
2023/02/09 04:32:45;;;;;;;0.60;0.60;;;;;;;2.14;78.17;101151.59;5108197;28;20024;-74
2023/02/09 04:35:10;;;;;;;0.65;0.65;;;;;;;2.10;78.35;101137.78;5089771;28;20024;-72
2023/02/09 04:37:36;;;;;;;0.50;0.50;;;;;;;2.12;78.17;101142.97;5107841;28;20532;-72
2023/02/09 04:40:01;;;;;;;0.60;0.60;;;;;;;2.10;77.58;101155.72;5089737;28;20034;-75
2023/02/09 04:42:26;;;;;;;0.60;0.60;;;;;;;2.13;77.30;101140.47;5107969;28;20020;-72
2023/02/09 04:44:52;;;;;;;0.70;0.70;;;;;;;2.08;76.99;101124.03;5089099;28;20032;-72
2023/02/09 04:47:17;;;;;;;0.60;0.60;;;;;;;2.08;75.30;101131.72;5089355;28;20101;-73
2023/02/09 04:49:43;;;;;;;1.45;1.45;;;;;;;2.07;75.60;101104.38;5107326;28;20468;-71
2023/02/09 04:52:08;;;;;;;6.82;4.32;;;;;;;2.08;76.34;101111.22;5108027;28;20016;-72
2023/02/09 04:54:34;;;;;;;0.50;0.50;;;;;;;2.16;75.82;101106.38;5108463;28;20425;-72
2023/02/09 04:59:44;;;;;;;0.60;0.60;;;;;;;2.14;74.60;101113.16;5107070;28;20396;-71
2023/02/09 05:02:10;;;;;;;0.60;0.60;;;;;;;2.09;74.03;101107.88;5107771;28;20034;-71
2023/02/09 05:04:36;;;;;;;0.60;0.60;;;;;;;2.13;74.46;101096.03;5107544;28;20582;-70
2023/02/09 05:07:01;;;;;;;2.17;2.08;;;;;;;2.08;74.52;101093.28;5106869;28;20055;-69
2023/02/09 05:09:27;;;;;;;0.40;0.40;;;;;;;2.09;73.97;101101.03;5107115;28;20057;-71
2023/02/09 05:11:52;;;;;;;0.60;0.60;;;;;;;2.09;72.87;101100.19;5107271;28;20464;-70
2023/02/09 05:14:18;;;;;;;0.70;0.70;;;;;;;2.11;73.30;101090.84;5107240;28;20083;-70
2023/02/09 05:16:43;;;;;;;0.80;0.80;;;;;;;2.10;73.13;101089.13;5107128;28;20031;-71
2023/02/09 05:19:08;;;;;;;0.60;0.60;;;;;;;2.10;73.36;101069.50;5107042;28;20075;-70
2023/02/09 05:21:34;;;;;;;0.60;0.60;;;;;;;2.12;73.10;101086.59;5107146;28;20032;-69
2023/02/09 05:23:59;;;;;;;0.50;0.50;;;;;;;2.10;72.75;101078.88;5106982;28;20020;-71
2023/02/09 05:26:25;;;;;;;0.90;0.90;;;;;;;2.08;72.74;101057.44;5107144;28;20361;-68
2023/02/09 05:28:50;;;;;;;0.52;0.52;;;;;;;2.12;72.52;101081.50;5106851;28;20028;-67
2023/02/09 05:31:16;;;;;;;0.60;0.60;;;;;;;2.15;72.40;101076.47;5106611;28;20020;-67
2023/02/09 05:33:42;;;;;;;1.30;1.30;;;;;;;2.12;73.38;101049.06;5106658;28;20024;-71
2023/02/09 05:36:08;;;;;;;0.60;0.60;;;;;;;2.14;72.13;101080.72;5088324;28;20034;-72
2023/02/09 05:38:34;;;;;;;1.58;1.55;;;;;;;2.16;72.52;101071.41;5106075;28;20051;-70
2023/02/09 05:41:08;;;;;;;1.15;1.00;;;;;;;2.14;71.88;101051.69;5106756;28;20393;-70
2023/02/09 05:43:34;;;;;;;0.60;0.60;;;;;;;2.19;71.81;101068.97;5106746;28;20016;-71
2023/02/09 05:46:00;;;;;;;0.98;0.98;;;;;;;2.19;72.17;101065.53;5106565;28;20024;-69
2023/02/09 05:48:25;;;;;;;0.60;0.60;;;;;;;2.20;71.99;101067.28;5085344;28;20133;-70
2023/02/09 05:50:51;;;;;;;0.60;0.60;;;;;;;2.27;71.56;101076.06;5086864;28;20028;-71
2023/02/09 05:53:16;;;;;;;0.77;0.77;;;;;;;2.27;72.11;101060.69;5086999;28;20070;-69
2023/02/09 05:55:42;;;;;;;0.50;0.50;;;;;;;2.26;71.76;101064.94;5085976;28;20024;-71
2023/02/09 05:58:08;;;;;;;0.60;0.60;;;;;;;2.28;71.38;101058.19;5086909;28;20059;-71
2023/02/09 06:00:34;;;;;;;0.98;0.98;;;;;;;2.31;71.56;101072.78;5086574;28;20039;-69
2023/02/09 06:02:59;;;;;;;0.50;0.50;;;;;;;2.33;71.61;101071.16;5086468;28;20551;-71
2023/02/09 06:05:25;;;;;;;4.63;4.22;;;;;;;2.37;72.47;101067.00;5085983;28;20021;-70
2023/02/09 06:07:50;;;;;;;0.55;0.55;;;;;;;2.34;72.18;101068.66;5085751;28;20036;-69
2023/02/09 06:10:17;;;;;;;0.90;0.90;;;;;;;2.41;72.01;101061.19;5085934;28;20021;-69
2023/02/09 06:12:43;;;;;;;1.55;1.48;;;;;;;2.44;71.84;101069.88;5086236;28;20491;-70
2023/02/09 06:15:09;;;;;;;0.60;0.60;;;;;;;2.38;71.13;101055.97;5086534;28;20033;-72
2023/02/09 06:17:35;;;;;;;0.60;0.60;;;;;;;2.39;70.74;101060.25;5085018;28;20024;-70
2023/02/09 06:20:01;;;;;;;0.60;0.60;;;;;;;2.29;70.94;101029.19;5084635;28;20025;-69
2023/02/09 06:22:28;;;;;;;0.75;0.75;;;;;;;2.37;70.46;101049.06;5085741;28;20027;-71
2023/02/09 06:24:53;;;;;;;0.60;0.60;;;;;;;2.34;70.38;101040.47;5085772;28;20024;-70
2023/02/09 06:27:19;;;;;;;0.50;0.50;;;;;;;2.29;70.24;101042.00;5085879;28;20036;-72
2023/02/09 06:29:44;;;;;;;0.57;0.57;;;;;;;2.29;70.25;101046.22;5084059;28;20537;-71
2023/02/09 06:32:09;;;;;;;0.60;0.60;;;;;;;2.32;70.31;101044.66;5085652;28;20031;-69
2023/02/09 06:34:35;;;;;;;0.60;0.60;;;;;;;2.32;70.50;101052.34;5085612;28;20020;-73
2023/02/09 06:37:00;;;;;;;0.60;0.60;;;;;;;2.30;69.84;101045.44;5085551;28;20036;-71
2023/02/09 06:39:26;;;;;;;0.60;0.60;;;;;;;2.32;70.39;101048.91;5085576;28;20074;-71
2023/02/09 06:41:51;;;;;;;1.13;1.13;;;;;;;2.31;70.05;101047.16;5085487;28;20024;-71
2023/02/09 06:44:17;;;;;;;4.35;1.27;;;;;;;2.43;70.88;101062.97;5085361;28;20353;-71
2023/02/09 06:46:42;;;;;;;2.15;2.05;;;;;;;2.44;71.35;101049.38;5087625;28;20055;-70
2023/02/09 06:49:08;;;;;;;0.57;0.57;;;;;;;2.43;70.94;101049.31;5105396;28;20114;-71
2023/02/09 06:51:33;;;;;;;0.52;0.52;;;;;;;2.47;70.94;101041.78;5105504;28;20039;-70
2023/02/09 06:53:59;;;;;;;0.60;0.60;;;;;;;2.51;71.10;101044.44;5105727;28;20059;-71
2023/02/09 06:56:24;;;;;;;0.50;0.50;;;;;;;2.52;71.41;101046.19;5105483;28;20062;-71
2023/02/09 06:58:50;;;;;;;0.70;0.70;;;;;;;2.52;71.88;101051.31;5086877;28;20028;-71
2023/02/09 07:01:15;;;;;;;0.60;0.60;;;;;;;2.51;71.31;101027.34;5104932;28;20039;-71
2023/02/09 07:03:41;;;;;;;0.55;0.55;;;;;;;2.53;71.77;101042.78;5105552;28;20052;-69
2023/02/09 07:06:16;;;;;;;1.73;1.63;;;;;;;2.50;71.92;101024.75;5105587;28;20044;-70
2023/02/09 07:08:41;;;;;;;0.98;0.98;;;;;;;2.51;71.69;101039.31;5105250;28;20130;-71
2023/02/09 07:11:10;;;;;;;0.60;0.60;;;;;;;2.48;72.04;101019.56;5105460;28;20031;-70
2023/02/09 07:13:36;;;;;;;0.50;0.50;;;;;;;2.51;71.86;101045.31;5087387;28;20028;-70
2023/02/09 07:16:03;;;;;;;0.60;0.60;;;;;;;2.52;72.18;101041.94;5105155;28;20056;-73
2023/02/09 07:18:28;;;;;;;0.60;0.60;;;;;;;2.54;72.59;101026.63;5105524;28;20472;-71
2023/02/09 07:20:56;;;;;;;0.68;0.68;;;;;;;2.57;73.53;101029.28;5105806;28;20028;-70
2023/02/09 07:23:22;;;;;;;2.67;2.20;;;;;;;2.56;73.39;101040.34;5105370;28;20028;-71
2023/02/09 07:25:47;;;;;;;0.60;0.60;;;;;;;2.56;72.67;101038.66;5105414;28;20032;-68
2023/02/09 07:28:13;;;;;;;0.55;0.55;;;;;;;2.50;73.66;101032.44;5103968;28;20035;-70
2023/02/09 07:30:39;;;;;;;2.10;1.95;;;;;;;2.58;73.80;101028.44;5107996;28;20169;-70
2023/02/09 07:33:05;;;;;;;1.75;1.65;;;;;;;2.56;73.42;101042.91;5090911;28;20024;-72
2023/02/09 07:35:31;;;;;;;0.60;0.60;;;;;;;2.57;73.59;101039.53;5109513;28;20027;-69
2023/02/09 07:37:56;;;;;;;0.57;0.57;;;;;;;2.60;74.52;101029.38;5109140;28;20031;-70
2023/02/09 07:40:22;;;;;;;0.60;0.60;;;;;;;2.59;74.35;101025.94;5109308;28;20036;-70
2023/02/09 07:42:49;;;;;;;0.98;0.98;;;;;;;2.56;73.95;101030.97;5109168;28;20083;-70
2023/02/09 07:45:14;;;;;;;0.95;0.95;;;;;;;2.54;74.43;101021.47;5109311;28;20075;-71
2023/02/09 07:47:40;;;;;;;1.13;1.13;;;;;;;2.55;74.10;101028.34;5106415;28;20612;-72
2023/02/09 07:50:05;;;;;;;0.60;0.60;;;;;;;2.51;74.36;101018.81;5106306;28;20021;-70
2023/02/09 07:52:31;;;;;;;0.50;0.50;;;;;;;2.59;74.70;101025.06;5088878;28;20365;-70
2023/02/09 07:54:56;;;;;;;1.30;1.30;;;;;;;2.60;74.76;101019.97;5108777;28;20016;-71
2023/02/09 07:57:22;;;;;;;2.78;2.60;;;;;;;2.60;74.70;101016.56;5090415;28;20092;-69
2023/02/09 07:59:47;;;;;;;1.13;1.13;;;;;;;2.60;75.38;101029.38;5108777;28;20016;-71
2023/02/09 08:02:22;;;;;;;2.10;2.00;;;;;;;2.59;74.85;101017.38;5108525;28;20047;-70
2023/02/09 08:04:48;;;;;;;0.70;0.70;;;;;;;2.58;75.36;101015.63;5091581;28;20486;-70
2023/02/09 08:07:14;;;;;;;1.58;1.50;;;;;;;2.55;75.95;100995.03;5108679;28;20087;-71
2023/02/09 08:09:43;;;;;;;10.63;2.90;;;;;;;2.56;76.10;101001.88;5108652;28;20024;-71
2023/02/09 08:12:09;;;;;;;0.55;0.55;;;;;;;2.65;76.75;101006.47;5108635;28;20479;-70
2023/02/09 08:14:47;;;;;;;0.55;0.55;;;;;;;2.56;76.92;101010.47;5108427;28;20020;-71
2023/02/09 08:17:22;;;;;;;0.90;0.90;;;;;;;2.51;77.22;100996.59;5108220;28;20028;-71
2023/02/09 08:19:50;;;;;;;0.60;0.60;;;;;;;2.47;77.30;100981.94;5108671;28;20027;-70
2023/02/09 08:22:16;;;;;;;0.60;0.60;;;;;;;2.42;77.17;101004.84;5090162;28;20020;-72
2023/02/09 08:24:42;;;;;;;0.70;0.70;;;;;;;2.37;78.27;101000.38;5090214;28;20073;-72
2023/02/09 08:27:07;;;;;;;0.75;0.75;;;;;;;2.35;78.68;100997.75;5108395;28;20024;-71
2023/02/09 08:29:33;;;;;;;0.60;0.60;;;;;;;2.35;79.35;101000.31;5108046;28;20028;-69
2023/02/09 08:31:58;;;;;;;17.92;4.53;;;;;;;2.26;79.83;100969.25;5108073;28;20032;-72
2023/02/09 08:34:23;;;;;;;0.50;0.50;;;;;;;2.19;80.02;100992.09;5107143;28;20093;-71
2023/02/09 08:36:51;;;;;;;1.00;1.00;;;;;;;2.16;80.29;100992.00;5106899;28;20028;-71
2023/02/09 08:39:17;;;;;;;0.52;0.52;;;;;;;2.25;81.15;100991.47;5088774;28;20038;-71
2023/02/09 08:41:42;;;;;;;0.65;0.65;;;;;;;2.32;81.23;100995.09;5107988;28;20055;-71
2023/02/09 08:44:07;;;;;;;0.63;0.63;;;;;;;2.32;81.63;100987.41;5108484;28;20081;-71
2023/02/09 08:46:34;;;;;;;3.53;3.33;;;;;;;2.40;81.66;100992.78;5108178;28;20032;-72
2023/02/09 08:48:59;;;;;;;1.15;1.15;;;;;;;2.40;81.43;100995.34;5108683;28;20024;-71
2023/02/09 08:51:25;;;;;;;0.70;0.70;;;;;;;2.34;81.81;100989.22;5108552;28;20111;-71
2023/02/09 08:53:50;;;;;;;1.27;1.27;;;;;;;2.40;81.59;100988.53;5108389;28;20051;-72
2023/02/09 08:56:20;;;;;;;0.80;0.80;;;;;;;2.42;81.58;100997.16;5108379;28;20024;-72
2023/02/09 08:58:46;;;;;;;0.50;0.50;;;;;;;2.54;81.91;100998.41;5108663;28;20012;-71
2023/02/09 09:01:12;;;;;;;0.60;0.60;;;;;;;2.58;82.54;100980.63;5108352;28;20024;-72
2023/02/09 09:03:38;;;;;;;0.70;0.70;;;;;;;2.58;82.69;100974.63;5107620;28;20016;-70
2023/02/09 09:06:06;;;;;;;0.60;0.60;;;;;;;2.63;82.87;100973.09;5089294;28;20031;-72
2023/02/09 09:08:33;;;;;;;0.68;0.68;;;;;;;2.65;83.28;100976.56;5107246;28;20084;-73
2023/02/09 09:10:59;;;;;;;0.60;0.60;;;;;;;2.65;82.81;100975.69;5107509;28;20168;-71
2023/02/09 09:13:26;;;;;;;0.50;0.50;;;;;;;2.63;82.32;100983.34;5107230;28;20464;-70
2023/02/09 09:15:52;;;;;;;0.60;0.60;;;;;;;2.63;82.25;100960.28;5108140;28;20107;-71
2023/02/09 09:18:18;;;;;;;0.70;0.70;;;;;;;2.66;82.25;100962.06;5107758;28;20020;-71
2023/02/09 09:20:43;;;;;;;0.60;0.60;;;;;;;2.72;82.61;100973.38;5107133;28;20106;-70
2023/02/09 09:23:09;;;;;;;43.60;4.60;;;;;;;2.79;82.89;100963.34;5107130;28;20027;-71
2023/02/09 09:25:37;;;;;;;0.60;0.60;;;;;;;2.78;82.57;100961.59;5107109;28;20020;-73
2023/02/09 09:28:03;;;;;;;0.52;0.52;;;;;;;2.79;82.63;100983.84;5106891;28;20031;-69
2023/02/09 09:30:28;;;;;;;1.20;1.20;;;;;;;2.81;82.96;100983.06;5106528;28;20096;-72
2023/02/09 09:32:54;;;;;;;0.60;0.60;;;;;;;2.82;82.82;100983.94;5106872;28;20074;-71
2023/02/09 09:35:19;;;;;;;0.60;0.60;;;;;;;2.82;83.16;100999.34;5088579;28;20044;-71
2023/02/09 09:37:45;;;;;;;1.13;1.13;;;;;;;2.81;82.58;100992.47;5106844;28;20407;-71
2023/02/09 09:40:18;;;;;;;1.15;1.10;;;;;;;2.82;83.17;100972.00;5106583;28;20083;-72
2023/02/09 09:42:50;;;;;;;0.50;0.50;;;;;;;2.84;83.09;100988.28;5106703;28;20016;-73
2023/02/09 09:45:19;;;;;;;1.02;1.02;;;;;;;2.89;83.43;100985.03;5106541;28;20469;-72
2023/02/09 09:47:46;;;;;;;0.70;0.68;;;;;;;2.80;83.52;100973.63;5088217;28;20131;-72
2023/02/09 09:50:17;;;;;;;0.60;0.60;;;;;;;2.92;83.64;100990.25;5106420;28;20027;-73
2023/02/09 09:52:47;;;;;;;0.52;0.52;;;;;;;2.89;83.87;100988.44;5106382;28;20046;-71
2023/02/09 09:55:25;;;;;;;0.68;0.68;;;;;;;2.94;83.96;100992.03;5106846;28;20027;-73
2023/02/09 09:57:52;;;;;;;1.70;1.60;;;;;;;2.99;84.24;101001.59;5106777;28;20423;-73
2023/02/09 10:00:24;;;;;;;0.60;0.60;;;;;;;2.99;84.55;100992.19;5106271;28;20380;-73
2023/02/09 10:02:50;;;;;;;1.60;1.50;;;;;;;2.98;84.66;100993.00;5088219;28;20053;-74
2023/02/09 10:05:16;;;;;;;0.57;0.57;;;;;;;3.02;84.69;100994.00;5106383;28;20024;-73
2023/02/09 10:07:48;;;;;;;0.60;0.60;;;;;;;3.06;85.09;100995.81;5106275;28;20034;-73
2023/02/09 10:10:29;;;;;;;10.90;6.90;;;;;;;3.13;85.38;101000.31;5106281;28;20028;-74
2023/02/09 10:12:54;;;;;;;0.60;0.60;;;;;;;3.19;85.36;100995.41;5105163;28;20034;-72
2023/02/09 10:15:26;;;;;;;0.50;0.50;;;;;;;3.24;85.05;100986.97;5105044;28;20247;-73
2023/02/09 10:17:52;;;;;;;0.70;0.70;;;;;;;3.28;85.18;100988.78;5105248;28;20030;-72
2023/02/09 10:20:39;;;;;;;2.70;2.60;;;;;;;3.28;84.96;101004.19;5087592;28;20031;-73
2023/02/09 10:23:04;;;;;;;0.50;0.50;;;;;;;3.34;84.81;101006.94;5087719;28;20026;-72
2023/02/09 10:25:48;;;;;;;2.33;2.22;;;;;;;3.40;85.01;101006.28;5105848;28;20020;-73
2023/02/09 10:28:22;;;;;;;3.47;3.20;;;;;;;3.44;84.79;101005.53;5105792;28;20019;-73
2023/02/09 10:30:52;;;;;;;0.60;0.60;;;;;;;3.43;85.42;101004.69;5087482;28;20026;-72
2023/02/09 10:33:17;;;;;;;4.95;2.58;;;;;;;3.55;85.27;101023.84;5105820;28;20096;-73
2023/02/09 10:35:55;;;;;;;0.80;0.80;;;;;;;3.59;85.41;101013.72;5105691;28;20471;-73
2023/02/09 10:38:26;;;;;;;1.50;1.40;;;;;;;3.60;85.20;101017.16;5105840;28;20016;-73
2023/02/09 10:40:52;;;;;;;0.70;0.70;;;;;;;3.72;85.57;101007.25;5106524;28;20038;-72
2023/02/09 10:43:17;;;;;;;0.50;0.50;;;;;;;3.77;85.76;101002.25;5106179;28;20103;-73
2023/02/09 10:45:45;;;;;;;0.60;0.60;;;;;;;3.81;85.58;101010.91;5105829;28;20035;-73
2023/02/09 10:48:10;;;;;;;0.50;0.50;;;;;;;3.83;84.73;101009.28;5086934;28;20044;-72
2023/02/09 10:50:57;;;;;;;0.60;0.60;;;;;;;3.84;84.90;101005.88;5105580;28;20034;-73
2023/02/09 10:53:30;;;;;;;0.88;0.88;;;;;;;3.87;84.76;101013.66;5105461;28;20027;-72
2023/02/09 10:56:13;;;;;;;0.50;0.50;;;;;;;3.89;85.06;101006.88;5105390;28;20079;-72
2023/02/09 10:58:38;;;;;;;0.60;0.60;;;;;;;3.84;84.83;100995.59;5105479;28;20023;-72
2023/02/09 11:01:10;;;;;;;0.60;0.60;;;;;;;3.93;84.65;100993.28;5086905;28;20020;-73
2023/02/09 11:03:44;;;;;;;0.57;0.57;;;;;;;4.01;85.00;101002.94;5104847;28;20016;-72
2023/02/09 11:06:16;;;;;;;0.60;0.60;;;;;;;4.01;84.67;100990.94;5105511;28;20028;-73
2023/02/09 11:08:51;;;;;;;1.40;1.40;;;;;;;4.05;84.90;100986.75;5105314;28;20077;-73
2023/02/09 11:11:30;;;;;;;0.50;0.50;;;;;;;4.10;85.01;100982.63;5105335;28;20024;-72
2023/02/09 11:13:56;;;;;;;2.28;2.17;;;;;;;4.13;84.96;100967.28;5105497;28;20456;-74
2023/02/09 11:17:00;;;;;;;0.50;0.50;;;;;;;4.39;85.30;100973.94;5105198;28;20039;-73
2023/02/09 11:19:54;;;;;;;1.83;1.75;;;;;;;4.54;85.21;100965.75;5105349;28;20020;-72
2023/02/09 11:22:19;;;;;;;0.77;0.77;;;;;;;4.71;85.35;100966.19;5104621;28;20020;-73
2023/02/09 11:25:00;;;;;;;3.00;2.80;;;;;;;4.83;84.74;100956.19;5104325;28;20024;-73
2023/02/09 11:27:30;;;;;;;0.50;0.50;;;;;;;4.95;84.83;100963.31;5086459;28;20024;-72
2023/02/09 11:30:01;;;;;;;0.50;0.50;;;;;;;5.29;85.29;100959.78;5085497;28;20106;-72
2023/02/09 11:32:42;;;;;;;0.60;0.60;;;;;;;5.65;84.36;100969.19;5104781;28;20138;-72
2023/02/09 11:35:16;;;;;;;1.55;1.50;;;;;;;5.65;83.04;100958.88;5105221;28;20021;-72
2023/02/09 11:37:49;;;;;;;1.00;0.95;;;;;;;5.60;82.89;100964.75;5105194;28;20144;-72
2023/02/09 11:40:14;;;;;;;2.05;1.95;;;;;;;5.43;82.49;100957.53;5105042;28;20020;-74
2023/02/09 11:42:47;;;;;;;0.50;0.50;;;;;;;5.33;82.62;100956.47;5105133;28;20079;-74
2023/02/09 11:45:37;;;;;;;0.60;0.60;;;;;;;5.29;83.03;100963.25;5105032;28;20028;-73
2023/02/09 11:48:23;;;;;;;1.45;1.45;;;;;;;5.35;82.53;100951.34;5104879;28;20047;-74
2023/02/09 11:51:01;;;;;;;1.98;1.88;;;;;;;5.60;83.75;100939.00;5105031;28;20462;-73